sensor_id;sensor_type;location;lat;lon;timestamp;P1;durP1;ratioP1;P2;durP2;ratioP2
6983;SDS011;3532;51.118;7.210;2023-03-31T00:00:08;6.30;;;2.60;;
6983;SDS011;3532;51.118;7.210;2023-03-31T00:02:38;4.00;;;2.50;;
6983;SDS011;3532;51.118;7.210;2023-03-31T00:05:07;6.93;;;2.20;;
6983;SDS011;3532;51.118;7.210;2023-03-31T00:07:33;5.20;;;2.27;;
6983;SDS011;3532;51.118;7.210;2023-03-31T00:10:02;4.70;;;2.17;;
6983;SDS011;3532;51.118;7.210;2023-03-31T00:12:28;7.77;;;2.60;;
6983;SDS011;3532;51.118;7.210;2023-03-31T00:14:54;6.67;;;2.27;;
6983;SDS011;3532;51.118;7.210;2023-03-31T00:17:19;3.53;;;2.50;;
6983;SDS011;3532;51.118;7.210;2023-03-31T00:19:44;6.47;;;2.57;;
6983;SDS011;3532;51.118;7.210;2023-03-31T00:22:14;3.63;;;1.97;;
6983;SDS011;3532;51.118;7.210;2023-03-31T00:24:42;6.47;;;2.07;;
6983;SDS011;3532;51.118;7.210;2023-03-31T00:27:08;4.90;;;2.33;;
6983;SDS011;3532;51.118;7.210;2023-03-31T00:29:34;3.83;;;2.63;;
6983;SDS011;3532;51.118;7.210;2023-03-31T00:31:59;4.33;;;1.90;;
6983;SDS011;3532;51.118;7.210;2023-03-31T00:34:25;4.27;;;1.90;;
6983;SDS011;3532;51.118;7.210;2023-03-31T00:36:51;5.33;;;2.20;;
6983;SDS011;3532;51.118;7.210;2023-03-31T00:39:21;5.77;;;2.20;;
6983;SDS011;3532;51.118;7.210;2023-03-31T00:41:47;5.63;;;2.23;;
6983;SDS011;3532;51.118;7.210;2023-03-31T00:46:52;5.83;;;2.20;;
6983;SDS011;3532;51.118;7.210;2023-03-31T00:49:32;5.13;;;2.50;;
6983;SDS011;3532;51.118;7.210;2023-03-31T00:52:19;6.20;;;2.47;;
6983;SDS011;3532;51.118;7.210;2023-03-31T00:54:48;5.23;;;2.87;;
6983;SDS011;3532;51.118;7.210;2023-03-31T00:57:17;5.47;;;2.40;;
6983;SDS011;3532;51.118;7.210;2023-03-31T00:59:45;7.87;;;2.40;;
6983;SDS011;3532;51.118;7.210;2023-03-31T01:02:12;6.17;;;3.13;;
6983;SDS011;3532;51.118;7.210;2023-03-31T01:04:38;4.47;;;2.20;;
6983;SDS011;3532;51.118;7.210;2023-03-31T01:07:09;6.50;;;2.93;;
6983;SDS011;3532;51.118;7.210;2023-03-31T01:09:41;5.10;;;2.33;;
6983;SDS011;3532;51.118;7.210;2023-03-31T01:12:11;2.87;;;2.10;;
6983;SDS011;3532;51.118;7.210;2023-03-31T01:14:37;5.27;;;2.50;;
6983;SDS011;3532;51.118;7.210;2023-03-31T01:17:03;8.30;;;2.37;;
6983;SDS011;3532;51.118;7.210;2023-03-31T01:19:32;7.50;;;2.53;;
6983;SDS011;3532;51.118;7.210;2023-03-31T01:22:14;9.57;;;3.13;;
6983;SDS011;3532;51.118;7.210;2023-03-31T01:24:57;5.17;;;2.50;;
6983;SDS011;3532;51.118;7.210;2023-03-31T01:27:54;9.40;;;3.30;;
6983;SDS011;3532;51.118;7.210;2023-03-31T01:35:53;3.80;;;2.40;;
6983;SDS011;3532;51.118;7.210;2023-03-31T01:41:21;7.17;;;2.93;;
6983;SDS011;3532;51.118;7.210;2023-03-31T01:44:01;5.00;;;2.23;;
6983;SDS011;3532;51.118;7.210;2023-03-31T01:52:20;8.07;;;3.27;;
6983;SDS011;3532;51.118;7.210;2023-03-31T01:54:54;6.77;;;2.30;;
6983;SDS011;3532;51.118;7.210;2023-03-31T01:57:33;5.37;;;2.13;;
6983;SDS011;3532;51.118;7.210;2023-03-31T02:02:28;6.00;;;2.47;;
6983;SDS011;3532;51.118;7.210;2023-03-31T02:05:01;6.10;;;2.50;;
6983;SDS011;3532;51.118;7.210;2023-03-31T02:07:33;5.13;;;2.50;;
6983;SDS011;3532;51.118;7.210;2023-03-31T02:10:03;6.93;;;2.30;;
6983;SDS011;3532;51.118;7.210;2023-03-31T02:12:30;5.97;;;2.60;;
6983;SDS011;3532;51.118;7.210;2023-03-31T02:14:57;6.30;;;2.53;;
6983;SDS011;3532;51.118;7.210;2023-03-31T02:17:24;6.00;;;2.60;;
6983;SDS011;3532;51.118;7.210;2023-03-31T02:19:57;6.47;;;2.70;;
6983;SDS011;3532;51.118;7.210;2023-03-31T02:22:24;3.93;;;2.33;;
6983;SDS011;3532;51.118;7.210;2023-03-31T02:24:51;7.40;;;2.83;;
6983;SDS011;3532;51.118;7.210;2023-03-31T02:29:51;4.67;;;2.93;;
6983;SDS011;3532;51.118;7.210;2023-03-31T02:32:22;3.57;;;1.97;;
6983;SDS011;3532;51.118;7.210;2023-03-31T02:34:52;7.70;;;2.50;;
6983;SDS011;3532;51.118;7.210;2023-03-31T02:37:18;5.20;;;2.13;;
6983;SDS011;3532;51.118;7.210;2023-03-31T02:39:45;9.43;;;2.83;;
6983;SDS011;3532;51.118;7.210;2023-03-31T02:42:12;4.37;;;2.80;;
6983;SDS011;3532;51.118;7.210;2023-03-31T02:44:38;6.17;;;2.60;;
6983;SDS011;3532;51.118;7.210;2023-03-31T02:47:08;5.97;;;2.87;;
6983;SDS011;3532;51.118;7.210;2023-03-31T02:49:36;7.80;;;2.70;;
6983;SDS011;3532;51.118;7.210;2023-03-31T03:03:19;8.97;;;3.67;;
6983;SDS011;3532;51.118;7.210;2023-03-31T03:12:15;10.27;;;3.63;;
6983;SDS011;3532;51.118;7.210;2023-03-31T03:17:14;7.33;;;2.83;;
6983;SDS011;3532;51.118;7.210;2023-03-31T03:19:42;9.13;;;3.27;;
6983;SDS011;3532;51.118;7.210;2023-03-31T03:22:08;7.17;;;3.17;;
6983;SDS011;3532;51.118;7.210;2023-03-31T03:24:33;14.73;;;3.93;;
6983;SDS011;3532;51.118;7.210;2023-03-31T03:26:59;8.63;;;3.57;;
6983;SDS011;3532;51.118;7.210;2023-03-31T03:29:25;10.80;;;3.13;;
6983;SDS011;3532;51.118;7.210;2023-03-31T03:31:51;7.90;;;3.50;;
6983;SDS011;3532;51.118;7.210;2023-03-31T03:34:17;7.60;;;3.10;;
6983;SDS011;3532;51.118;7.210;2023-03-31T03:36:44;9.13;;;3.33;;
6983;SDS011;3532;51.118;7.210;2023-03-31T03:39:10;6.67;;;3.00;;
6983;SDS011;3532;51.118;7.210;2023-03-31T03:41:35;9.77;;;2.90;;
6983;SDS011;3532;51.118;7.210;2023-03-31T03:44:01;13.87;;;4.30;;
6983;SDS011;3532;51.118;7.210;2023-03-31T03:46:26;7.83;;;3.77;;
6983;SDS011;3532;51.118;7.210;2023-03-31T03:48:51;7.93;;;2.73;;
6983;SDS011;3532;51.118;7.210;2023-03-31T03:51:17;9.47;;;3.70;;
6983;SDS011;3532;51.118;7.210;2023-03-31T03:53:42;10.57;;;3.50;;
6983;SDS011;3532;51.118;7.210;2023-03-31T03:56:08;9.30;;;3.10;;
6983;SDS011;3532;51.118;7.210;2023-03-31T03:58:33;8.73;;;3.00;;
6983;SDS011;3532;51.118;7.210;2023-03-31T04:00:58;9.47;;;3.07;;
6983;SDS011;3532;51.118;7.210;2023-03-31T04:03:23;12.53;;;3.40;;
6983;SDS011;3532;51.118;7.210;2023-03-31T04:05:49;8.60;;;3.63;;
6983;SDS011;3532;51.118;7.210;2023-03-31T04:08:14;13.10;;;2.73;;
6983;SDS011;3532;51.118;7.210;2023-03-31T04:10:44;9.30;;;3.80;;
6983;SDS011;3532;51.118;7.210;2023-03-31T04:13:10;11.77;;;3.97;;
6983;SDS011;3532;51.118;7.210;2023-03-31T04:15:36;10.97;;;3.50;;
6983;SDS011;3532;51.118;7.210;2023-03-31T04:18:01;12.70;;;3.47;;
6983;SDS011;3532;51.118;7.210;2023-03-31T04:20:26;9.60;;;3.73;;
6983;SDS011;3532;51.118;7.210;2023-03-31T04:22:55;6.80;;;2.83;;
6983;SDS011;3532;51.118;7.210;2023-03-31T04:25:20;8.27;;;2.87;;
6983;SDS011;3532;51.118;7.210;2023-03-31T04:27:47;7.57;;;3.27;;
6983;SDS011;3532;51.118;7.210;2023-03-31T04:30:24;7.47;;;3.53;;
6983;SDS011;3532;51.118;7.210;2023-03-31T04:32:55;12.87;;;3.27;;
6983;SDS011;3532;51.118;7.210;2023-03-31T04:35:22;6.07;;;2.90;;
6983;SDS011;3532;51.118;7.210;2023-03-31T04:37:48;7.17;;;2.80;;
6983;SDS011;3532;51.118;7.210;2023-03-31T04:40:15;7.87;;;3.27;;
6983;SDS011;3532;51.118;7.210;2023-03-31T04:42:41;12.97;;;3.03;;
6983;SDS011;3532;51.118;7.210;2023-03-31T04:45:07;5.53;;;2.73;;
6983;SDS011;3532;51.118;7.210;2023-03-31T04:47:33;8.20;;;2.93;;
6983;SDS011;3532;51.118;7.210;2023-03-31T04:49:58;8.27;;;2.90;;
6983;SDS011;3532;51.118;7.210;2023-03-31T04:52:24;8.60;;;2.57;;
6983;SDS011;3532;51.118;7.210;2023-03-31T04:54:49;5.33;;;2.80;;
6983;SDS011;3532;51.118;7.210;2023-03-31T04:57:15;6.63;;;2.83;;
6983;SDS011;3532;51.118;7.210;2023-03-31T04:59:40;6.33;;;2.70;;
6983;SDS011;3532;51.118;7.210;2023-03-31T05:02:05;6.80;;;3.00;;
6983;SDS011;3532;51.118;7.210;2023-03-31T05:04:30;8.27;;;2.70;;
6983;SDS011;3532;51.118;7.210;2023-03-31T05:06:56;8.43;;;3.10;;
6983;SDS011;3532;51.118;7.210;2023-03-31T05:09:21;5.60;;;2.33;;
6983;SDS011;3532;51.118;7.210;2023-03-31T05:11:46;5.03;;;2.30;;
6983;SDS011;3532;51.118;7.210;2023-03-31T05:14:12;6.63;;;2.80;;
6983;SDS011;3532;51.118;7.210;2023-03-31T05:16:37;9.37;;;3.47;;
6983;SDS011;3532;51.118;7.210;2023-03-31T05:19:02;9.97;;;3.03;;
6983;SDS011;3532;51.118;7.210;2023-03-31T05:21:28;12.27;;;3.23;;
6983;SDS011;3532;51.118;7.210;2023-03-31T05:23:54;5.10;;;3.27;;
6983;SDS011;3532;51.118;7.210;2023-03-31T05:26:20;7.73;;;3.63;;
6983;SDS011;3532;51.118;7.210;2023-03-31T05:28:48;9.30;;;3.50;;
6983;SDS011;3532;51.118;7.210;2023-03-31T05:31:14;7.73;;;3.57;;
6983;SDS011;3532;51.118;7.210;2023-03-31T05:33:39;7.13;;;2.90;;
6983;SDS011;3532;51.118;7.210;2023-03-31T05:36:12;9.17;;;2.90;;
6983;SDS011;3532;51.118;7.210;2023-03-31T05:38:39;10.13;;;3.53;;
6983;SDS011;3532;51.118;7.210;2023-03-31T05:41:05;8.13;;;2.90;;
6983;SDS011;3532;51.118;7.210;2023-03-31T05:43:31;7.73;;;2.90;;
6983;SDS011;3532;51.118;7.210;2023-03-31T05:45:56;9.77;;;2.93;;
6983;SDS011;3532;51.118;7.210;2023-03-31T05:48:22;6.00;;;2.60;;
6983;SDS011;3532;51.118;7.210;2023-03-31T05:50:47;5.60;;;2.77;;
6983;SDS011;3532;51.118;7.210;2023-03-31T05:53:12;5.47;;;2.83;;
6983;SDS011;3532;51.118;7.210;2023-03-31T05:55:38;10.03;;;2.87;;
6983;SDS011;3532;51.118;7.210;2023-03-31T05:58:04;3.77;;;2.40;;
6983;SDS011;3532;51.118;7.210;2023-03-31T06:00:30;6.50;;;2.57;;
6983;SDS011;3532;51.118;7.210;2023-03-31T06:02:56;13.00;;;2.80;;
6983;SDS011;3532;51.118;7.210;2023-03-31T06:05:23;6.37;;;2.50;;
6983;SDS011;3532;51.118;7.210;2023-03-31T06:07:50;5.07;;;2.97;;
6983;SDS011;3532;51.118;7.210;2023-03-31T06:10:16;7.00;;;3.17;;
6983;SDS011;3532;51.118;7.210;2023-03-31T06:12:42;6.10;;;2.57;;
6983;SDS011;3532;51.118;7.210;2023-03-31T06:15:07;4.63;;;2.73;;
6983;SDS011;3532;51.118;7.210;2023-03-31T06:17:32;6.50;;;2.23;;
6983;SDS011;3532;51.118;7.210;2023-03-31T06:19:58;9.23;;;2.47;;
6983;SDS011;3532;51.118;7.210;2023-03-31T06:22:23;6.30;;;2.20;;
6983;SDS011;3532;51.118;7.210;2023-03-31T06:24:48;4.00;;;2.30;;
6983;SDS011;3532;51.118;7.210;2023-03-31T06:27:14;4.80;;;2.33;;
6983;SDS011;3532;51.118;7.210;2023-03-31T06:29:39;5.27;;;2.40;;
6983;SDS011;3532;51.118;7.210;2023-03-31T06:32:05;6.67;;;2.33;;
6983;SDS011;3532;51.118;7.210;2023-03-31T06:34:30;4.07;;;2.50;;
6983;SDS011;3532;51.118;7.210;2023-03-31T06:36:55;6.40;;;2.70;;
6983;SDS011;3532;51.118;7.210;2023-03-31T06:39:21;3.33;;;1.90;;
6983;SDS011;3532;51.118;7.210;2023-03-31T06:41:46;3.00;;;1.83;;
6983;SDS011;3532;51.118;7.210;2023-03-31T06:44:11;3.73;;;1.90;;
6983;SDS011;3532;51.118;7.210;2023-03-31T06:46:36;5.33;;;2.00;;
6983;SDS011;3532;51.118;7.210;2023-03-31T06:49:02;4.67;;;1.90;;
6983;SDS011;3532;51.118;7.210;2023-03-31T06:51:27;3.63;;;1.83;;
6983;SDS011;3532;51.118;7.210;2023-03-31T06:53:52;5.17;;;2.27;;
6983;SDS011;3532;51.118;7.210;2023-03-31T06:56:18;3.23;;;2.17;;
6983;SDS011;3532;51.118;7.210;2023-03-31T06:58:43;5.17;;;1.87;;
6983;SDS011;3532;51.118;7.210;2023-03-31T07:01:08;3.30;;;1.80;;
6983;SDS011;3532;51.118;7.210;2023-03-31T07:03:35;3.60;;;1.70;;
6983;SDS011;3532;51.118;7.210;2023-03-31T07:06:00;3.20;;;2.33;;
6983;SDS011;3532;51.118;7.210;2023-03-31T07:08:26;1.70;;;1.47;;
6983;SDS011;3532;51.118;7.210;2023-03-31T07:10:56;4.70;;;1.70;;
6983;SDS011;3532;51.118;7.210;2023-03-31T07:13:22;4.47;;;2.00;;
6983;SDS011;3532;51.118;7.210;2023-03-31T07:15:48;3.50;;;1.63;;
6983;SDS011;3532;51.118;7.210;2023-03-31T07:18:14;1.60;;;1.50;;
6983;SDS011;3532;51.118;7.210;2023-03-31T07:20:40;3.53;;;1.73;;
6983;SDS011;3532;51.118;7.210;2023-03-31T07:23:06;6.13;;;2.07;;
6983;SDS011;3532;51.118;7.210;2023-03-31T07:25:32;2.83;;;1.70;;
6983;SDS011;3532;51.118;7.210;2023-03-31T07:27:58;3.20;;;1.37;;
6983;SDS011;3532;51.118;7.210;2023-03-31T07:30:24;3.93;;;1.60;;
6983;SDS011;3532;51.118;7.210;2023-03-31T07:32:50;1.83;;;1.47;;
6983;SDS011;3532;51.118;7.210;2023-03-31T07:35:16;2.77;;;1.80;;
6983;SDS011;3532;51.118;7.210;2023-03-31T07:37:43;4.93;;;1.57;;
6983;SDS011;3532;51.118;7.210;2023-03-31T07:40:11;3.70;;;1.30;;
6983;SDS011;3532;51.118;7.210;2023-03-31T07:42:42;1.90;;;1.50;;
6983;SDS011;3532;51.118;7.210;2023-03-31T07:45:08;1.50;;;1.40;;
6983;SDS011;3532;51.118;7.210;2023-03-31T07:47:34;2.00;;;1.40;;
6983;SDS011;3532;51.118;7.210;2023-03-31T07:50:00;1.50;;;1.40;;
6983;SDS011;3532;51.118;7.210;2023-03-31T07:52:25;2.23;;;1.50;;
6983;SDS011;3532;51.118;7.210;2023-03-31T07:54:51;1.97;;;1.30;;
6983;SDS011;3532;51.118;7.210;2023-03-31T07:57:16;2.53;;;1.40;;
6983;SDS011;3532;51.118;7.210;2023-03-31T07:59:44;1.70;;;1.23;;
6983;SDS011;3532;51.118;7.210;2023-03-31T08:02:14;2.20;;;1.63;;
6983;SDS011;3532;51.118;7.210;2023-03-31T08:04:40;2.37;;;1.30;;
6983;SDS011;3532;51.118;7.210;2023-03-31T08:07:06;3.03;;;1.50;;
6983;SDS011;3532;51.118;7.210;2023-03-31T08:09:32;2.10;;;1.40;;
6983;SDS011;3532;51.118;7.210;2023-03-31T08:11:58;1.93;;;1.60;;
6983;SDS011;3532;51.118;7.210;2023-03-31T08:14:23;3.27;;;1.40;;
6983;SDS011;3532;51.118;7.210;2023-03-31T08:16:49;2.23;;;1.40;;
6983;SDS011;3532;51.118;7.210;2023-03-31T08:19:16;1.87;;;1.30;;
6983;SDS011;3532;51.118;7.210;2023-03-31T08:21:41;1.57;;;1.43;;
6983;SDS011;3532;51.118;7.210;2023-03-31T08:24:07;1.60;;;1.30;;
6983;SDS011;3532;51.118;7.210;2023-03-31T08:26:32;2.20;;;1.87;;
6983;SDS011;3532;51.118;7.210;2023-03-31T08:28:59;1.50;;;1.40;;
6983;SDS011;3532;51.118;7.210;2023-03-31T08:31:24;1.60;;;1.37;;
6983;SDS011;3532;51.118;7.210;2023-03-31T08:33:50;2.17;;;1.70;;
6983;SDS011;3532;51.118;7.210;2023-03-31T08:36:15;3.47;;;1.50;;
6983;SDS011;3532;51.118;7.210;2023-03-31T08:38:42;4.10;;;1.53;;
6983;SDS011;3532;51.118;7.210;2023-03-31T08:41:18;1.87;;;1.53;;
6983;SDS011;3532;51.118;7.210;2023-03-31T08:43:50;3.93;;;1.57;;
6983;SDS011;3532;51.118;7.210;2023-03-31T08:46:17;2.87;;;1.77;;
6983;SDS011;3532;51.118;7.210;2023-03-31T08:48:44;3.20;;;1.90;;
6983;SDS011;3532;51.118;7.210;2023-03-31T08:51:20;4.60;;;2.47;;
6983;SDS011;3532;51.118;7.210;2023-03-31T08:53:50;3.67;;;1.60;;
6983;SDS011;3532;51.118;7.210;2023-03-31T08:56:20;5.03;;;1.77;;
6983;SDS011;3532;51.118;7.210;2023-03-31T08:58:49;2.17;;;1.40;;
6983;SDS011;3532;51.118;7.210;2023-03-31T09:01:26;3.77;;;1.90;;
6983;SDS011;3532;51.118;7.210;2023-03-31T09:06:54;2.37;;;1.47;;
6983;SDS011;3532;51.118;7.210;2023-03-31T09:09:51;2.23;;;1.73;;
6983;SDS011;3532;51.118;7.210;2023-03-31T09:12:30;5.87;;;2.03;;
6983;SDS011;3532;51.118;7.210;2023-03-31T09:15:01;1.87;;;1.70;;
6983;SDS011;3532;51.118;7.210;2023-03-31T09:17:33;2.70;;;1.80;;
6983;SDS011;3532;51.118;7.210;2023-03-31T09:22:39;6.40;;;2.53;;
6983;SDS011;3532;51.118;7.210;2023-03-31T09:25:22;6.27;;;2.83;;
6983;SDS011;3532;51.118;7.210;2023-03-31T09:27:51;8.97;;;2.97;;
6983;SDS011;3532;51.118;7.210;2023-03-31T09:30:21;6.20;;;2.77;;
6983;SDS011;3532;51.118;7.210;2023-03-31T09:32:52;7.47;;;2.40;;
6983;SDS011;3532;51.118;7.210;2023-03-31T09:35:28;9.37;;;3.00;;
6983;SDS011;3532;51.118;7.210;2023-03-31T09:37:57;5.30;;;2.87;;
6983;SDS011;3532;51.118;7.210;2023-03-31T09:40:24;6.87;;;2.73;;
6983;SDS011;3532;51.118;7.210;2023-03-31T09:45:28;5.00;;;2.80;;
6983;SDS011;3532;51.118;7.210;2023-03-31T09:47:55;6.53;;;3.10;;
6983;SDS011;3532;51.118;7.210;2023-03-31T09:50:22;6.07;;;2.80;;
6983;SDS011;3532;51.118;7.210;2023-03-31T09:52:52;3.03;;;2.30;;
6983;SDS011;3532;51.118;7.210;2023-03-31T09:55:20;6.17;;;2.73;;
6983;SDS011;3532;51.118;7.210;2023-03-31T09:57:47;6.03;;;2.70;;
6983;SDS011;3532;51.118;7.210;2023-03-31T10:00:19;6.87;;;2.70;;
6983;SDS011;3532;51.118;7.210;2023-03-31T10:02:55;8.63;;;3.40;;
6983;SDS011;3532;51.118;7.210;2023-03-31T10:10:48;6.23;;;3.23;;
6983;SDS011;3532;51.118;7.210;2023-03-31T10:13:15;11.13;;;3.30;;
6983;SDS011;3532;51.118;7.210;2023-03-31T10:15:43;10.17;;;3.37;;
6983;SDS011;3532;51.118;7.210;2023-03-31T10:18:15;5.50;;;2.60;;
6983;SDS011;3532;51.118;7.210;2023-03-31T10:20:43;8.10;;;2.70;;
6983;SDS011;3532;51.118;7.210;2023-03-31T10:23:17;5.63;;;2.33;;
6983;SDS011;3532;51.118;7.210;2023-03-31T10:25:47;6.17;;;2.70;;
6983;SDS011;3532;51.118;7.210;2023-03-31T10:28:17;6.30;;;2.70;;
6983;SDS011;3532;51.118;7.210;2023-03-31T10:30:57;10.07;;;2.90;;
6983;SDS011;3532;51.118;7.210;2023-03-31T10:33:26;6.97;;;2.53;;
6983;SDS011;3532;51.118;7.210;2023-03-31T10:35:55;5.93;;;3.03;;
6983;SDS011;3532;51.118;7.210;2023-03-31T10:38:26;7.93;;;3.37;;
6983;SDS011;3532;51.118;7.210;2023-03-31T10:40:54;10.07;;;3.53;;
6983;SDS011;3532;51.118;7.210;2023-03-31T10:43:24;5.47;;;2.63;;
6983;SDS011;3532;51.118;7.210;2023-03-31T10:45:55;8.03;;;3.50;;
6983;SDS011;3532;51.118;7.210;2023-03-31T10:48:26;7.00;;;3.60;;
6983;SDS011;3532;51.118;7.210;2023-03-31T10:50:54;8.00;;;3.20;;
6983;SDS011;3532;51.118;7.210;2023-03-31T10:53:23;9.30;;;3.70;;
6983;SDS011;3532;51.118;7.210;2023-03-31T10:55:54;7.90;;;3.70;;
6983;SDS011;3532;51.118;7.210;2023-03-31T10:58:33;5.57;;;2.90;;
6983;SDS011;3532;51.118;7.210;2023-03-31T11:04:06;8.60;;;2.97;;
6983;SDS011;3532;51.118;7.210;2023-03-31T11:12:10;8.17;;;3.90;;
6983;SDS011;3532;51.118;7.210;2023-03-31T11:17:28;7.80;;;3.17;;
6983;SDS011;3532;51.118;7.210;2023-03-31T11:22:36;6.73;;;3.10;;
6983;SDS011;3532;51.118;7.210;2023-03-31T11:25:09;5.50;;;2.87;;
6983;SDS011;3532;51.118;7.210;2023-03-31T11:33:40;8.73;;;3.17;;
6983;SDS011;3532;51.118;7.210;2023-03-31T11:42:02;5.10;;;2.13;;
6983;SDS011;3532;51.118;7.210;2023-03-31T11:44:35;5.07;;;2.10;;
6983;SDS011;3532;51.118;7.210;2023-03-31T11:47:06;1.57;;;1.37;;
6983;SDS011;3532;51.118;7.210;2023-03-31T11:49:36;4.90;;;1.97;;
6983;SDS011;3532;51.118;7.210;2023-03-31T11:54:55;2.63;;;1.53;;
6983;SDS011;3532;51.118;7.210;2023-03-31T11:57:30;2.57;;;1.63;;
6983;SDS011;3532;51.118;7.210;2023-03-31T12:00:42;1.67;;;1.57;;
6983;SDS011;3532;51.118;7.210;2023-03-31T12:05:44;1.73;;;1.50;;
6983;SDS011;3532;51.118;7.210;2023-03-31T12:08:12;4.37;;;1.30;;
6983;SDS011;3532;51.118;7.210;2023-03-31T12:10:54;1.90;;;1.70;;
6983;SDS011;3532;51.118;7.210;2023-03-31T12:13:34;1.77;;;1.67;;
6983;SDS011;3532;51.118;7.210;2023-03-31T12:16:05;2.57;;;1.60;;
6983;SDS011;3532;51.118;7.210;2023-03-31T12:18:48;3.10;;;1.67;;
6983;SDS011;3532;51.118;7.210;2023-03-31T12:21:31;1.83;;;1.60;;
6983;SDS011;3532;51.118;7.210;2023-03-31T12:23:58;4.03;;;1.77;;
6983;SDS011;3532;51.118;7.210;2023-03-31T12:29:28;3.90;;;2.20;;
6983;SDS011;3532;51.118;7.210;2023-03-31T12:31:55;2.93;;;1.80;;
6983;SDS011;3532;51.118;7.210;2023-03-31T12:34:24;5.60;;;1.90;;
6983;SDS011;3532;51.118;7.210;2023-03-31T12:37:05;4.10;;;2.17;;
6983;SDS011;3532;51.118;7.210;2023-03-31T12:42:58;6.57;;;1.90;;
6983;SDS011;3532;51.118;7.210;2023-03-31T12:45:42;6.73;;;2.40;;
6983;SDS011;3532;51.118;7.210;2023-03-31T12:48:14;5.17;;;2.20;;
6983;SDS011;3532;51.118;7.210;2023-03-31T12:56:03;8.80;;;3.00;;
6983;SDS011;3532;51.118;7.210;2023-03-31T13:14:04;11.90;;;3.40;;
6983;SDS011;3532;51.118;7.210;2023-03-31T13:16:48;7.10;;;3.47;;
6983;SDS011;3532;51.118;7.210;2023-03-31T13:19:29;8.40;;;3.20;;
6983;SDS011;3532;51.118;7.210;2023-03-31T13:21:57;6.03;;;3.00;;
6983;SDS011;3532;51.118;7.210;2023-03-31T13:24:24;6.80;;;3.03;;
6983;SDS011;3532;51.118;7.210;2023-03-31T13:26:50;11.80;;;2.93;;
6983;SDS011;3532;51.118;7.210;2023-03-31T13:29:18;4.87;;;2.67;;
6983;SDS011;3532;51.118;7.210;2023-03-31T13:34:27;7.83;;;2.87;;
6983;SDS011;3532;51.118;7.210;2023-03-31T13:37:17;9.43;;;3.77;;
6983;SDS011;3532;51.118;7.210;2023-03-31T13:42:52;12.17;;;3.27;;
6983;SDS011;3532;51.118;7.210;2023-03-31T14:02:38;5.53;;;2.33;;
6983;SDS011;3532;51.118;7.210;2023-03-31T14:05:09;5.43;;;2.60;;
6983;SDS011;3532;51.118;7.210;2023-03-31T14:10:43;7.23;;;2.53;;
6983;SDS011;3532;51.118;7.210;2023-03-31T14:13:17;5.43;;;2.40;;
6983;SDS011;3532;51.118;7.210;2023-03-31T14:18:32;4.47;;;2.40;;
6983;SDS011;3532;51.118;7.210;2023-03-31T14:21:07;4.70;;;2.40;;
6983;SDS011;3532;51.118;7.210;2023-03-31T14:26:41;4.73;;;2.37;;
6983;SDS011;3532;51.118;7.210;2023-03-31T14:34:21;8.67;;;2.47;;
6983;SDS011;3532;51.118;7.210;2023-03-31T14:36:58;10.23;;;2.83;;
6983;SDS011;3532;51.118;7.210;2023-03-31T14:39:26;5.63;;;2.50;;
6983;SDS011;3532;51.118;7.210;2023-03-31T14:42:04;5.47;;;2.57;;
6983;SDS011;3532;51.118;7.210;2023-03-31T14:44:32;14.67;;;3.20;;
6983;SDS011;3532;51.118;7.210;2023-03-31T14:46:58;5.93;;;2.70;;
6983;SDS011;3532;51.118;7.210;2023-03-31T14:49:25;4.57;;;2.63;;
6983;SDS011;3532;51.118;7.210;2023-03-31T14:51:52;6.47;;;2.67;;
6983;SDS011;3532;51.118;7.210;2023-03-31T14:54:19;11.90;;;3.40;;
6983;SDS011;3532;51.118;7.210;2023-03-31T14:57:03;8.00;;;2.47;;
6983;SDS011;3532;51.118;7.210;2023-03-31T14:59:29;4.77;;;2.40;;
6983;SDS011;3532;51.118;7.210;2023-03-31T15:01:58;5.63;;;2.63;;
6983;SDS011;3532;51.118;7.210;2023-03-31T15:04:24;2.87;;;2.10;;
6983;SDS011;3532;51.118;7.210;2023-03-31T15:06:52;5.23;;;2.50;;
6983;SDS011;3532;51.118;7.210;2023-03-31T15:09:20;7.13;;;3.07;;
6983;SDS011;3532;51.118;7.210;2023-03-31T15:11:51;5.73;;;3.10;;
6983;SDS011;3532;51.118;7.210;2023-03-31T15:14:19;5.70;;;2.70;;
6983;SDS011;3532;51.118;7.210;2023-03-31T15:16:44;5.20;;;2.30;;
6983;SDS011;3532;51.118;7.210;2023-03-31T15:19:13;2.87;;;2.33;;
6983;SDS011;3532;51.118;7.210;2023-03-31T15:24:35;5.73;;;2.30;;
6983;SDS011;3532;51.118;7.210;2023-03-31T15:29:42;5.93;;;1.93;;
6983;SDS011;3532;51.118;7.210;2023-03-31T15:34:56;4.50;;;2.43;;
6983;SDS011;3532;51.118;7.210;2023-03-31T15:37:23;5.73;;;2.00;;
6983;SDS011;3532;51.118;7.210;2023-03-31T15:39:51;5.47;;;2.37;;
6983;SDS011;3532;51.118;7.210;2023-03-31T15:42:21;3.37;;;2.00;;
6983;SDS011;3532;51.118;7.210;2023-03-31T15:45:15;3.63;;;1.67;;
6983;SDS011;3532;51.118;7.210;2023-03-31T15:47:51;4.87;;;2.20;;
6983;SDS011;3532;51.118;7.210;2023-03-31T15:50:17;8.87;;;2.70;;
6983;SDS011;3532;51.118;7.210;2023-03-31T15:52:46;8.13;;;2.50;;
6983;SDS011;3532;51.118;7.210;2023-03-31T15:57:53;5.63;;;2.60;;
6983;SDS011;3532;51.118;7.210;2023-03-31T16:03:04;8.43;;;2.97;;
6983;SDS011;3532;51.118;7.210;2023-03-31T16:05:40;9.17;;;2.50;;
6983;SDS011;3532;51.118;7.210;2023-03-31T16:08:11;5.97;;;3.07;;
6983;SDS011;3532;51.118;7.210;2023-03-31T16:10:38;7.33;;;3.10;;
6983;SDS011;3532;51.118;7.210;2023-03-31T16:13:05;6.80;;;2.90;;
6983;SDS011;3532;51.118;7.210;2023-03-31T16:15:36;6.27;;;2.63;;
6983;SDS011;3532;51.118;7.210;2023-03-31T16:18:12;6.67;;;2.83;;
6983;SDS011;3532;51.118;7.210;2023-03-31T16:20:41;6.90;;;3.00;;
6983;SDS011;3532;51.118;7.210;2023-03-31T16:23:16;10.63;;;3.13;;
6983;SDS011;3532;51.118;7.210;2023-03-31T16:25:43;8.23;;;2.77;;
6983;SDS011;3532;51.118;7.210;2023-03-31T16:28:12;9.47;;;2.90;;
6983;SDS011;3532;51.118;7.210;2023-03-31T16:30:46;7.00;;;3.03;;
6983;SDS011;3532;51.118;7.210;2023-03-31T16:33:12;7.23;;;2.63;;
6983;SDS011;3532;51.118;7.210;2023-03-31T16:35:48;7.80;;;2.47;;
6983;SDS011;3532;51.118;7.210;2023-03-31T16:38:20;8.57;;;3.53;;
6983;SDS011;3532;51.118;7.210;2023-03-31T16:40:47;6.40;;;2.37;;
6983;SDS011;3532;51.118;7.210;2023-03-31T16:45:53;9.27;;;2.70;;
6983;SDS011;3532;51.118;7.210;2023-03-31T16:48:20;6.07;;;2.30;;
6983;SDS011;3532;51.118;7.210;2023-03-31T16:50:56;3.93;;;2.27;;
6983;SDS011;3532;51.118;7.210;2023-03-31T16:53:23;6.70;;;2.50;;
6983;SDS011;3532;51.118;7.210;2023-03-31T16:55:51;4.10;;;2.07;;
6983;SDS011;3532;51.118;7.210;2023-03-31T16:58:17;3.63;;;2.30;;
6983;SDS011;3532;51.118;7.210;2023-03-31T17:00:43;3.43;;;2.07;;
6983;SDS011;3532;51.118;7.210;2023-03-31T17:03:09;4.17;;;2.00;;
6983;SDS011;3532;51.118;7.210;2023-03-31T17:05:38;2.13;;;1.60;;
6983;SDS011;3532;51.118;7.210;2023-03-31T17:08:06;4.10;;;1.67;;
6983;SDS011;3532;51.118;7.210;2023-03-31T17:10:32;2.07;;;1.60;;
6983;SDS011;3532;51.118;7.210;2023-03-31T17:12:58;3.63;;;1.57;;
6983;SDS011;3532;51.118;7.210;2023-03-31T17:15:23;2.07;;;1.80;;
6983;SDS011;3532;51.118;7.210;2023-03-31T17:17:48;2.27;;;1.90;;
6983;SDS011;3532;51.118;7.210;2023-03-31T17:20:14;3.60;;;1.57;;
6983;SDS011;3532;51.118;7.210;2023-03-31T17:22:39;1.60;;;1.50;;
6983;SDS011;3532;51.118;7.210;2023-03-31T17:25:05;3.00;;;1.70;;
6983;SDS011;3532;51.118;7.210;2023-03-31T17:27:32;3.47;;;1.80;;
6983;SDS011;3532;51.118;7.210;2023-03-31T17:29:57;3.83;;;1.83;;
6983;SDS011;3532;51.118;7.210;2023-03-31T17:32:23;4.30;;;2.07;;
6983;SDS011;3532;51.118;7.210;2023-03-31T17:34:48;2.23;;;1.67;;
6983;SDS011;3532;51.118;7.210;2023-03-31T17:37:15;3.47;;;2.03;;
6983;SDS011;3532;51.118;7.210;2023-03-31T17:39:40;5.63;;;2.30;;
6983;SDS011;3532;51.118;7.210;2023-03-31T17:42:06;3.90;;;2.27;;
6983;SDS011;3532;51.118;7.210;2023-03-31T17:44:32;3.30;;;2.00;;
6983;SDS011;3532;51.118;7.210;2023-03-31T17:46:57;3.00;;;1.83;;
6983;SDS011;3532;51.118;7.210;2023-03-31T17:49:23;5.00;;;1.90;;
6983;SDS011;3532;51.118;7.210;2023-03-31T17:51:49;3.40;;;1.97;;
6983;SDS011;3532;51.118;7.210;2023-03-31T17:54:14;3.07;;;1.90;;
6983;SDS011;3532;51.118;7.210;2023-03-31T17:56:40;5.90;;;2.00;;
6983;SDS011;3532;51.118;7.210;2023-03-31T17:59:06;5.37;;;2.10;;
6983;SDS011;3532;51.118;7.210;2023-03-31T18:01:31;4.67;;;2.33;;
6983;SDS011;3532;51.118;7.210;2023-03-31T18:03:57;6.10;;;1.87;;
6983;SDS011;3532;51.118;7.210;2023-03-31T18:06:22;5.40;;;2.07;;
6983;SDS011;3532;51.118;7.210;2023-03-31T18:08:49;4.60;;;1.80;;
6983;SDS011;3532;51.118;7.210;2023-03-31T18:11:14;3.80;;;2.00;;